createdAt,value
2019-04-06T00:00:20.170Z,24.70
2019-04-06T00:02:48.890Z,24.77
2019-04-06T00:05:17.586Z,23.70
2019-04-06T00:07:46.267Z,24.47
2019-04-06T00:10:15.775Z,23.60
2019-04-06T00:12:44.462Z,24.40
2019-04-06T00:15:13.595Z,25.50
2019-04-06T00:17:42.306Z,24.13
2019-04-06T00:20:10.996Z,24.60
2019-04-06T00:22:39.705Z,24.00
2019-04-06T00:25:09.988Z,25.43
2019-04-06T00:27:38.676Z,24.53
2019-04-06T00:30:08.378Z,26.87
2019-04-06T00:32:41.500Z,23.10
2019-04-06T00:35:10.421Z,24.67
2019-04-06T00:37:39.284Z,24.40
2019-04-06T00:40:08.267Z,22.80
2019-04-06T00:42:37.050Z,25.80
2019-04-06T00:45:06.754Z,24.53
2019-04-06T00:47:35.481Z,26.27
2019-04-06T00:50:06.670Z,23.13
2019-04-06T00:52:35.364Z,25.33
2019-04-06T00:55:05.483Z,23.17
2019-04-06T00:57:35.242Z,24.10
2019-04-06T01:00:05.435Z,24.43
2019-04-06T01:02:34.135Z,22.20
2019-04-06T01:05:02.888Z,23.60
2019-04-06T01:07:31.591Z,23.33
2019-04-06T01:10:00.504Z,24.30
2019-04-06T01:12:29.176Z,23.30
2019-04-06T01:14:57.887Z,24.90
2019-04-06T01:17:26.618Z,23.47
2019-04-06T01:19:55.330Z,25.40
2019-04-06T01:22:24.008Z,25.40
2019-04-06T01:24:52.747Z,25.63
2019-04-06T01:27:21.553Z,23.53
2019-04-06T01:29:50.271Z,24.90
2019-04-06T01:32:18.951Z,24.77
2019-04-06T01:34:48.984Z,21.77
2019-04-06T01:37:17.923Z,24.83
2019-04-06T01:39:46.662Z,23.73
2019-04-06T01:42:15.423Z,25.00
2019-04-06T01:44:44.153Z,23.90
2019-04-06T01:47:12.846Z,23.37
2019-04-06T01:49:41.516Z,24.87
2019-04-06T01:52:10.247Z,25.70
2019-04-06T01:54:38.942Z,22.63
2019-04-06T01:57:07.714Z,23.03
2019-04-06T01:59:36.378Z,24.80
2019-04-06T02:02:12.648Z,24.87
2019-04-06T02:04:41.335Z,25.27
2019-04-06T02:07:10.095Z,22.77
2019-04-06T02:09:38.824Z,23.87
2019-04-06T02:12:07.541Z,23.30
2019-04-06T02:14:36.360Z,23.30
2019-04-06T02:17:05.287Z,26.27
2019-04-06T02:19:33.938Z,23.20
2019-04-06T02:22:02.760Z,22.27
2019-04-06T02:24:31.624Z,24.10
2019-04-06T02:27:00.332Z,24.00
2019-04-06T02:29:29.003Z,22.37
2019-04-06T02:32:02.056Z,25.27
2019-04-06T02:34:50.376Z,23.20
2019-04-06T02:37:20.699Z,24.10
2019-04-06T02:39:56.882Z,23.33
2019-04-06T02:42:29.911Z,22.50
2019-04-06T02:44:58.636Z,21.90
2019-04-06T02:47:27.444Z,24.50
2019-04-06T02:49:56.292Z,22.13
2019-04-06T02:52:25.000Z,23.30
2019-04-06T02:54:53.746Z,22.67
2019-04-06T02:57:22.478Z,24.57
2019-04-06T02:59:51.217Z,23.10
2019-04-06T03:02:19.917Z,23.13
2019-04-06T03:04:48.637Z,23.07
2019-04-06T03:07:17.468Z,21.83
2019-04-06T03:09:46.521Z,22.63
2019-04-06T03:12:15.263Z,24.60
2019-04-06T03:14:44.845Z,26.07
2019-04-06T03:17:13.786Z,21.80
2019-04-06T03:19:42.439Z,22.97
2019-04-06T03:22:11.164Z,23.13
2019-04-06T03:24:39.930Z,23.10
2019-04-06T03:27:08.716Z,22.53
2019-04-06T03:29:37.409Z,21.37
2019-04-06T03:32:06.178Z,22.53
2019-04-06T03:34:35.027Z,21.73
2019-04-06T03:37:03.958Z,23.10
2019-04-06T03:39:32.808Z,23.20
2019-04-06T03:42:01.481Z,22.87
2019-04-06T03:44:30.195Z,23.93
2019-04-06T03:47:00.740Z,23.53
2019-04-06T03:49:29.711Z,23.90
2019-04-06T03:51:58.398Z,24.37
2019-04-06T03:54:27.196Z,25.60
2019-04-06T03:56:55.914Z,21.30
2019-04-06T03:59:24.583Z,23.20
2019-04-06T04:01:53.272Z,24.10
2019-04-06T04:04:21.980Z,24.20
2019-04-06T04:06:52.802Z,24.43
2019-04-06T04:09:21.983Z,24.83
2019-04-06T04:11:50.904Z,23.07
2019-04-06T04:14:19.845Z,22.50
2019-04-06T04:16:48.534Z,23.30
2019-04-06T04:19:17.250Z,24.57
2019-04-06T04:21:45.925Z,24.47
2019-04-06T04:24:14.638Z,23.77
2019-04-06T04:26:43.340Z,23.77
2019-04-06T04:29:12.330Z,23.37
2019-04-06T04:31:41.175Z,21.97
2019-04-06T04:34:10.184Z,22.60
2019-04-06T04:36:39.093Z,23.57
2019-04-06T04:39:08.445Z,22.90
2019-04-06T04:41:39.394Z,24.80
2019-04-06T04:44:08.009Z,24.27
2019-04-06T04:46:36.702Z,22.27
2019-04-06T04:49:05.621Z,22.30
2019-04-06T04:51:34.295Z,23.87
2019-04-06T04:54:03.003Z,25.10
2019-04-06T04:56:31.995Z,26.10
2019-04-06T04:59:00.771Z,25.03
2019-04-06T05:01:29.557Z,24.37
2019-04-06T05:03:58.276Z,24.67
2019-04-06T05:06:27.024Z,24.73
2019-04-06T05:08:55.859Z,23.57
2019-04-06T05:11:24.830Z,22.80
2019-04-06T05:14:13.015Z,27.40
2019-04-06T05:16:41.689Z,23.63
2019-04-06T05:19:10.362Z,26.80
2019-04-06T05:21:39.080Z,26.57
2019-04-06T05:24:07.952Z,25.83
2019-04-06T05:26:38.044Z,25.23
2019-04-06T05:29:07.183Z,27.33
2019-04-06T05:31:36.026Z,26.13
2019-04-06T05:34:05.296Z,24.97
2019-04-06T05:36:34.200Z,26.17
2019-04-06T05:39:03.310Z,24.60
2019-04-06T05:41:33.783Z,27.07
2019-04-06T05:44:02.491Z,27.43
2019-04-06T05:46:31.417Z,26.60
2019-04-06T05:49:00.202Z,28.87
2019-04-06T05:51:28.925Z,26.80
2019-04-06T05:53:57.755Z,27.73
2019-04-06T05:56:26.455Z,28.00
2019-04-06T05:58:55.162Z,27.00
2019-04-06T06:01:23.867Z,26.33
2019-04-06T06:03:52.574Z,26.57
2019-04-06T06:06:21.401Z,25.40
2019-04-06T06:08:50.256Z,24.43
2019-04-06T06:11:18.968Z,25.27
2019-04-06T06:13:50.393Z,26.53
2019-04-06T06:16:19.198Z,25.27
2019-04-06T06:18:48.060Z,26.23
2019-04-06T06:21:16.794Z,26.07
2019-04-06T06:23:45.665Z,26.23
2019-04-06T06:26:14.387Z,23.87
2019-04-06T06:28:43.451Z,25.10
2019-04-06T06:31:12.129Z,24.40
2019-04-06T06:33:41.069Z,26.50
2019-04-06T06:36:09.806Z,26.23
2019-04-06T06:38:39.308Z,28.10
2019-04-06T06:41:08.611Z,27.90
2019-04-06T06:43:37.584Z,25.50
2019-04-06T06:46:06.731Z,26.67
2019-04-06T06:48:35.407Z,26.57
2019-04-06T06:51:04.338Z,24.87
2019-04-06T06:53:33.557Z,26.53
2019-04-06T06:56:02.551Z,26.60
2019-04-06T06:58:31.409Z,26.47
2019-04-06T07:01:00.112Z,28.77
2019-04-06T07:03:28.793Z,26.00
2019-04-06T07:05:57.467Z,28.50
2019-04-06T07:08:26.207Z,26.67
2019-04-06T07:10:55.836Z,27.33
2019-04-06T07:13:24.541Z,27.10
2019-04-06T07:15:53.442Z,25.30
2019-04-06T07:18:22.115Z,29.23
2019-04-06T07:20:50.824Z,25.00
2019-04-06T07:23:19.713Z,26.07
2019-04-06T07:25:57.350Z,25.03
2019-04-06T07:28:20.497Z,27.30
2019-04-06T07:30:49.258Z,26.57
2019-04-06T07:33:17.967Z,25.53
2019-04-06T07:35:46.663Z,27.23
2019-04-06T07:38:15.348Z,26.80
2019-04-06T07:40:44.230Z,24.40
2019-04-06T07:43:12.965Z,26.13
2019-04-06T07:45:41.678Z,26.33
2019-04-06T07:48:10.363Z,25.77
2019-04-06T07:50:39.445Z,28.33
2019-04-06T07:53:08.586Z,26.80
2019-04-06T07:55:37.486Z,25.67
2019-04-06T07:58:06.334Z,24.87
2019-04-06T08:00:35.148Z,25.20
2019-04-06T08:03:04.070Z,25.47
2019-04-06T08:05:32.871Z,26.70
2019-04-06T08:08:01.855Z,24.13
2019-04-06T08:10:30.560Z,24.10
2019-04-06T08:12:59.272Z,24.07
2019-04-06T08:15:28.005Z,25.50
2019-04-06T08:17:56.691Z,26.03
2019-04-06T08:20:25.366Z,25.60
2019-04-06T08:22:54.359Z,24.77
2019-04-06T08:25:23.232Z,24.97
2019-04-06T08:27:51.988Z,23.97
2019-04-06T08:30:20.880Z,25.57
2019-04-06T08:32:49.842Z,23.47
2019-04-06T08:35:25.231Z,25.27
2019-04-06T08:37:49.198Z,25.53
2019-04-06T08:40:18.140Z,24.80
2019-04-06T08:42:46.787Z,26.77
2019-04-06T08:45:15.602Z,24.73
2019-04-06T08:47:44.325Z,25.40
2019-04-06T08:50:13.134Z,26.87
2019-04-06T08:52:42.063Z,26.83
2019-04-06T08:55:10.820Z,27.40
2019-04-06T08:57:39.501Z,26.60
2019-04-06T09:00:09.249Z,24.80
2019-04-06T09:02:39.401Z,28.20
2019-04-06T09:05:08.617Z,25.90
2019-04-06T09:07:37.633Z,27.60
2019-04-06T09:10:07.057Z,26.10
2019-04-06T09:12:35.918Z,27.40
2019-04-06T09:15:07.042Z,27.00
2019-04-06T09:17:35.861Z,28.17
2019-04-06T09:20:07.697Z,27.03
2019-04-06T09:22:36.383Z,28.63
2019-04-06T09:25:07.803Z,31.07
2019-04-06T09:27:36.645Z,29.20
2019-04-06T09:30:06.623Z,29.33
2019-04-06T09:32:35.392Z,29.00
2019-04-06T09:35:05.426Z,29.20
2019-04-06T09:37:34.282Z,27.93
2019-04-06T09:40:04.001Z,27.77
2019-04-06T09:42:32.757Z,29.17
2019-04-06T09:45:03.238Z,30.13
2019-04-06T09:47:42.283Z,30.23
2019-04-06T09:50:12.724Z,28.97
2019-04-06T09:52:43.207Z,29.50
2019-04-06T09:55:14.143Z,30.93
2019-04-06T09:57:59.267Z,28.03
2019-04-06T10:00:29.885Z,27.57
2019-04-06T10:03:00.255Z,29.40
2019-04-06T10:05:33.285Z,29.43
2019-04-06T10:08:19.926Z,28.30
2019-04-06T10:10:59.348Z,26.37
2019-04-06T10:13:29.750Z,28.40
2019-04-06T10:16:12.006Z,26.50
2019-04-06T10:18:57.701Z,26.73
2019-04-06T10:21:44.263Z,26.50
2019-04-06T10:24:17.568Z,28.80
2019-04-06T10:27:04.283Z,27.30
2019-04-06T10:29:49.264Z,29.90
2019-04-06T10:32:27.811Z,26.10
2019-04-06T10:35:03.722Z,26.90
2019-04-06T10:37:33.993Z,27.53
2019-04-06T10:40:04.316Z,26.97
2019-04-06T10:42:43.970Z,27.93
2019-04-06T10:45:17.004Z,26.50
2019-04-06T10:47:47.254Z,27.87
2019-04-06T10:50:17.574Z,26.80
2019-04-06T10:52:50.676Z,27.90
2019-04-06T10:55:33.081Z,27.43
2019-04-06T10:58:21.435Z,25.17
2019-04-06T11:00:51.699Z,26.97
2019-04-06T11:03:27.643Z,25.90
2019-04-06T11:06:00.537Z,28.27
2019-04-06T11:08:46.875Z,27.40
2019-04-06T11:11:20.370Z,25.60
2019-04-06T11:14:05.627Z,28.00
2019-04-06T11:16:51.920Z,26.47
2019-04-06T11:19:30.907Z,27.97
2019-04-06T11:22:03.863Z,28.23
2019-04-06T11:24:34.140Z,25.07
2019-04-06T11:27:04.707Z,27.73
2019-04-06T11:29:43.883Z,27.67
2019-04-06T11:32:14.460Z,26.53
2019-04-06T11:34:44.917Z,28.60
2019-04-06T11:37:31.399Z,26.67
2019-04-06T11:40:17.605Z,26.20
2019-04-06T11:42:56.398Z,25.17
2019-04-06T11:45:42.904Z,26.47
2019-04-06T11:48:29.430Z,27.03
2019-04-06T11:50:59.831Z,27.43
2019-04-06T11:53:38.745Z,27.27
2019-04-06T11:56:14.890Z,26.23
2019-04-06T11:59:01.583Z,25.13
2019-04-06T12:01:40.895Z,26.43
2019-04-06T12:04:16.792Z,23.70
2019-04-06T12:06:52.850Z,24.70
2019-04-06T12:09:39.261Z,25.53
2019-04-06T12:12:09.671Z,24.27
2019-04-06T12:14:55.226Z,22.40
2019-04-06T12:17:40.945Z,23.47
2019-04-06T12:20:20.733Z,26.50
2019-04-06T12:22:54.207Z,24.50
2019-04-06T12:25:43.046Z,26.03
2019-04-06T12:28:21.330Z,22.53
2019-04-06T12:30:53.721Z,25.63
2019-04-06T12:33:42.202Z,24.13
2019-04-06T12:36:28.783Z,24.80
2019-04-06T12:39:05.015Z,23.73
2019-04-06T12:41:38.343Z,22.80
2019-04-06T12:44:11.387Z,23.53
2019-04-06T12:46:41.969Z,24.00
2019-04-06T12:49:24.571Z,25.87
2019-04-06T12:51:54.901Z,23.97
2019-04-06T12:54:30.825Z,23.37
2019-04-06T12:57:04.153Z,23.70
2019-04-06T12:59:52.617Z,22.47
2019-04-06T13:02:23.158Z,21.90
2019-04-06T13:04:56.231Z,20.93
2019-04-06T13:07:26.856Z,21.97
2019-04-06T13:10:13.574Z,22.83
2019-04-06T13:12:46.670Z,24.27
2019-04-06T13:15:19.781Z,25.23
2019-04-06T13:18:06.289Z,26.07
2019-04-06T13:20:36.583Z,21.43
2019-04-06T13:23:21.982Z,24.80
2019-04-06T13:26:07.508Z,25.33
2019-04-06T13:28:56.060Z,19.70
2019-04-06T13:31:44.400Z,22.00
2019-04-06T13:34:20.782Z,21.93
2019-04-06T13:37:02.948Z,20.60
2019-04-06T13:39:38.899Z,17.53
2019-04-06T13:42:25.670Z,17.60
2019-04-06T13:45:04.702Z,16.90
2019-04-06T13:47:35.091Z,16.70
2019-04-06T13:50:07.038Z,18.47
2019-04-06T13:52:37.733Z,17.00
2019-04-06T13:55:25.556Z,16.77
2019-04-06T13:57:56.121Z,15.70
2019-04-06T14:00:29.385Z,15.27
2019-04-06T14:03:02.168Z,17.17
2019-04-06T14:05:38.302Z,18.27
2019-04-06T14:08:25.125Z,19.67
2019-04-06T14:11:14.166Z,16.93
2019-04-06T14:13:52.687Z,18.10
2019-04-06T14:16:28.935Z,18.40
2019-04-06T14:19:01.872Z,19.70
2019-04-06T14:21:32.156Z,18.37
2019-04-06T14:24:18.865Z,16.93
2019-04-06T14:27:01.249Z,18.70
2019-04-06T14:29:37.165Z,18.10
2019-04-06T14:32:09.917Z,22.47
2019-04-06T14:34:40.463Z,18.53
2019-04-06T14:37:16.527Z,19.40
2019-04-06T14:39:56.127Z,18.23
2019-04-06T14:42:29.656Z,18.90
2019-04-06T14:45:16.214Z,18.50
2019-04-06T14:47:49.360Z,18.93
2019-04-06T14:50:28.738Z,16.23
2019-04-06T14:53:01.798Z,15.80
2019-04-06T14:55:40.634Z,16.30
2019-04-06T14:58:13.981Z,17.53
2019-04-06T15:01:00.490Z,16.40
2019-04-06T15:03:31.272Z,16.60
2019-04-06T15:06:01.872Z,17.60
2019-04-06T15:08:35.054Z,16.43
2019-04-06T15:11:17.650Z,16.33
2019-04-06T15:13:47.911Z,17.43
2019-04-06T15:16:18.192Z,14.80
2019-04-06T15:18:54.408Z,15.23
2019-04-06T15:21:24.711Z,17.57
2019-04-06T15:23:58.734Z,16.10
2019-04-06T15:26:31.880Z,17.90
2019-04-06T15:29:20.111Z,27.03
2019-04-06T15:31:51.681Z,33.80
2019-04-06T15:34:40.624Z,34.63
2019-04-06T15:37:10.915Z,35.97
2019-04-06T15:39:42.059Z,35.23
2019-04-06T15:42:12.885Z,35.70
2019-04-06T15:44:59.480Z,35.77
2019-04-06T15:47:46.022Z,35.93
2019-04-06T15:50:25.058Z,33.47
2019-04-06T15:53:11.796Z,33.63
2019-04-06T15:55:42.140Z,34.07
2019-04-06T15:58:18.501Z,33.33
2019-04-06T16:00:48.783Z,35.80
2019-04-06T16:03:28.164Z,34.53
2019-04-06T16:06:04.101Z,33.43
2019-04-06T16:08:34.395Z,31.37
2019-04-06T16:11:20.838Z,34.47
2019-04-06T16:13:52.003Z,32.47
2019-04-06T16:16:22.554Z,34.83
2019-04-06T16:18:58.630Z,34.50
2019-04-06T16:21:34.601Z,32.00
2019-04-06T16:24:17.029Z,32.67
2019-04-06T16:26:56.770Z,34.10
2019-04-06T16:29:27.292Z,33.70
2019-04-06T16:32:13.986Z,32.57
2019-04-06T16:34:53.461Z,33.27
2019-04-06T16:37:24.731Z,33.63
2019-04-06T16:40:11.712Z,32.30
2019-04-06T16:42:41.973Z,33.77
2019-04-06T16:45:24.319Z,33.97
2019-04-06T16:48:10.948Z,32.43
2019-04-06T16:50:44.072Z,31.80
2019-04-06T16:53:17.182Z,30.00
2019-04-06T16:55:56.355Z,28.57
2019-04-06T16:58:32.113Z,28.00
2019-04-06T17:01:08.315Z,30.10
2019-04-06T17:03:41.463Z,29.80
2019-04-06T17:06:28.107Z,30.10
2019-04-06T17:09:13.389Z,30.00
2019-04-06T17:11:52.397Z,31.53
2019-04-06T17:14:28.657Z,32.93
2019-04-06T17:17:01.429Z,29.23
2019-04-06T17:19:43.704Z,30.97
2019-04-06T17:22:14.103Z,32.60
2019-04-06T17:24:53.358Z,34.37
2019-04-06T17:27:23.879Z,30.60
2019-04-06T17:29:57.126Z,33.70
2019-04-06T17:32:36.979Z,33.57
2019-04-06T17:35:09.310Z,32.37
2019-04-06T17:37:52.156Z,33.60
2019-04-06T17:40:34.596Z,33.30
2019-04-06T17:43:13.808Z,33.10
2019-04-06T17:45:44.066Z,33.53
2019-04-06T17:48:29.511Z,34.10
2019-04-06T17:51:03.194Z,34.03
2019-04-06T17:53:45.713Z,33.03
2019-04-06T17:56:25.009Z,33.10
2019-04-06T17:58:55.525Z,33.30
2019-04-06T18:01:37.886Z,33.33
2019-04-06T18:04:24.346Z,34.70
2019-04-06T18:07:09.741Z,31.50
2019-04-06T18:09:40.143Z,35.43
2019-04-06T18:12:26.519Z,33.20
2019-04-06T18:14:55.220Z,31.53
2019-04-06T18:17:24.253Z,32.93
2019-04-06T18:19:53.102Z,37.17
2019-04-06T18:22:21.809Z,35.23
2019-04-06T18:24:50.539Z,35.43
2019-04-06T18:27:19.412Z,35.40
2019-04-06T18:29:49.245Z,35.47
2019-04-06T18:32:19.687Z,38.13
2019-04-06T18:34:48.387Z,38.50
2019-04-06T18:37:21.572Z,35.93
2019-04-06T18:39:51.810Z,37.47
2019-04-06T18:42:20.852Z,36.50
2019-04-06T18:44:49.879Z,33.67
2019-04-06T18:47:18.795Z,30.73
2019-04-06T18:49:47.898Z,31.67
2019-04-06T18:52:16.785Z,32.40
2019-04-06T18:54:46.123Z,32.50
2019-04-06T18:57:15.356Z,32.27
2019-04-06T18:59:44.144Z,31.30
2019-04-06T19:02:12.984Z,33.40
2019-04-06T19:04:42.202Z,35.07
2019-04-06T19:07:11.007Z,32.97
2019-04-06T19:09:40.638Z,35.17
2019-04-06T19:12:10.042Z,33.50
2019-04-06T19:14:39.384Z,34.83
2019-04-06T19:17:08.469Z,34.00
2019-04-06T19:19:37.409Z,33.83
2019-04-06T19:22:06.149Z,37.07
2019-04-06T19:24:35.109Z,37.07
2019-04-06T19:27:04.418Z,37.90
2019-04-06T19:29:33.251Z,38.70
2019-04-06T19:32:02.838Z,37.13
2019-04-06T19:34:31.656Z,39.00
2019-04-06T19:37:00.421Z,37.17
2019-04-06T19:39:29.172Z,37.67
2019-04-06T19:41:58.357Z,37.87
2019-04-06T19:44:27.299Z,35.90
2019-04-06T19:46:56.048Z,40.90
2019-04-06T19:49:25.261Z,44.30
2019-04-06T19:51:54.418Z,42.10
2019-04-06T19:54:23.310Z,38.43
2019-04-06T19:56:52.023Z,41.20
2019-04-06T19:59:21.144Z,39.47
2019-04-06T20:01:49.967Z,39.20
2019-04-06T20:04:18.654Z,36.90
2019-04-06T20:06:47.831Z,41.37
2019-04-06T20:09:16.590Z,39.97
2019-04-06T20:11:45.575Z,39.20
2019-04-06T20:14:14.643Z,42.33
2019-04-06T20:16:43.402Z,50.53
2019-04-06T20:19:12.567Z,43.63
2019-04-06T20:21:42.005Z,47.57
2019-04-06T20:24:10.806Z,48.23
2019-04-06T20:26:40.111Z,46.97
2019-04-06T20:29:09.081Z,41.33
2019-04-06T20:31:38.041Z,40.90
2019-04-06T20:34:06.748Z,40.23
2019-04-06T20:36:35.569Z,36.57
2019-04-06T20:39:07.634Z,34.27
2019-04-06T20:41:36.432Z,32.43
2019-04-06T20:44:05.841Z,32.87
2019-04-06T20:46:34.562Z,31.30
2019-04-06T20:49:04.417Z,32.47
2019-04-06T20:51:33.313Z,32.77
2019-04-06T20:54:02.523Z,34.00
2019-04-06T20:56:31.497Z,36.87
2019-04-06T20:59:01.389Z,35.17
2019-04-06T21:01:30.242Z,37.13
2019-04-06T21:04:02.647Z,36.27
2019-04-06T21:06:29.591Z,36.80
2019-04-06T21:08:58.663Z,35.17
2019-04-06T21:11:27.443Z,30.37
2019-04-06T21:13:56.716Z,32.77
2019-04-06T21:16:25.549Z,32.90
2019-04-06T21:18:54.723Z,33.00
2019-04-06T21:21:23.707Z,36.20
2019-04-06T21:23:52.907Z,37.10
2019-04-06T21:26:22.473Z,35.97
2019-04-06T21:28:52.904Z,33.70
2019-04-06T21:31:21.835Z,33.00
2019-04-06T21:33:50.511Z,35.27
2019-04-06T21:36:19.238Z,32.77
2019-04-06T21:38:48.220Z,33.30
2019-04-06T21:41:16.945Z,34.77
2019-04-06T21:43:45.691Z,36.50
2019-04-06T21:46:14.594Z,32.67
2019-04-06T21:48:43.282Z,33.10
2019-04-06T21:51:12.445Z,35.37
2019-04-06T21:53:41.343Z,35.30
2019-04-06T21:56:10.054Z,34.27
2019-04-06T21:58:39.230Z,33.43
2019-04-06T22:01:11.919Z,36.27
2019-04-06T22:03:41.037Z,36.20
2019-04-06T22:06:09.862Z,33.93
2019-04-06T22:08:38.571Z,38.60
2019-04-06T22:11:07.315Z,37.90
2019-04-06T22:13:36.552Z,37.67
2019-04-06T22:16:24.596Z,38.30
2019-04-06T22:18:53.651Z,37.67
2019-04-06T22:21:22.699Z,35.40
2019-04-06T22:23:52.381Z,37.00
2019-04-06T22:26:21.101Z,34.97
2019-04-06T22:28:50.131Z,34.07
2019-04-06T22:31:20.050Z,35.87
2019-04-06T22:33:49.082Z,35.47
2019-04-06T22:36:17.966Z,33.30
2019-04-06T22:38:47.019Z,34.37
2019-04-06T22:41:15.868Z,33.17
2019-04-06T22:43:44.603Z,33.20
2019-04-06T22:46:13.558Z,31.13
2019-04-06T22:48:42.634Z,33.57
2019-04-06T22:51:11.469Z,32.83
2019-04-06T22:53:40.883Z,32.57
2019-04-06T22:56:09.985Z,33.83
2019-04-06T22:58:39.183Z,35.30
2019-04-06T23:01:11.952Z,32.77
2019-04-06T23:03:42.330Z,35.40
2019-04-06T23:06:12.964Z,34.83
2019-04-06T23:08:42.297Z,34.17
2019-04-06T23:11:11.674Z,35.87
2019-04-06T23:13:41.081Z,35.07
2019-04-06T23:16:10.338Z,36.17
2019-04-06T23:18:39.111Z,32.97
2019-04-06T23:21:08.204Z,36.20
2019-04-06T23:23:37.097Z,35.30
2019-04-06T23:26:05.906Z,34.07
2019-04-06T23:28:34.622Z,35.27
2019-04-06T23:31:03.911Z,37.93
2019-04-06T23:33:32.775Z,34.77
2019-04-06T23:36:02.112Z,34.83
2019-04-06T23:38:30.881Z,35.70
2019-04-06T23:41:00.234Z,35.40
2019-04-06T23:43:29.014Z,37.77
2019-04-06T23:45:58.328Z,36.10
2019-04-06T23:48:27.020Z,37.10
2019-04-06T23:50:56.136Z,33.93
2019-04-06T23:53:25.352Z,35.67
2019-04-06T23:55:54.319Z,38.80
2019-04-06T23:58:22.992Z,36.20
